Time;durP1;ratioP1;P1;durP2;ratioP2;P2;SDS_P1;SDS_P2;PMS_P1;PMS_P2;Temp;Humidity;BMP_temperature;BMP_pressure;BME280_temperature;BME280_humidity;BME280_pressure;Samples;Min_cycle;Max_cycle;Signal;HPM_P1;HPM_P2
2022/12/26 00:01:57;;;;;;;70.60;32.88;;;8.20;99.90;;;;;;5001097;28;20077;-71
2022/12/26 00:04:23;;;;;;;75.40;33.63;;;8.20;99.90;;;;;;5002538;28;20045;-70
2022/12/26 00:06:49;;;;;;;64.22;31.52;;;8.20;99.90;;;;;;4983204;28;20048;-69
2022/12/26 00:09:16;;;;;;;99.10;39.28;;;8.20;99.90;;;;;;5001039;28;20046;-68
2022/12/26 00:11:41;;;;;;;79.10;35.13;;;8.20;99.90;;;;;;5001801;28;20503;-69
2022/12/26 00:14:11;;;;;;;88.78;36.75;;;8.20;99.90;;;;;;4999104;28;20133;-69
2022/12/26 00:16:38;;;;;;;66.28;31.45;;;8.20;99.90;;;;;;4999828;28;20050;-70
2022/12/26 00:19:04;;;;;;;62.47;31.03;;;8.20;99.90;;;;;;4995583;28;20109;-71
2022/12/26 00:21:30;;;;;;;60.92;30.13;;;8.20;99.90;;;;;;5000923;28;20067;-71
2022/12/26 00:23:57;;;;;;;74.10;32.03;;;8.20;99.90;;;;;;5003863;28;20033;-70
2022/12/26 00:26:27;;;;;;;74.28;32.08;;;8.20;99.90;;;;;;5007223;28;20133;-71
2022/12/26 00:28:54;;;;;;;71.88;34.10;;;8.20;99.90;;;;;;5006075;28;20128;-69
2022/12/26 00:31:26;;;;;;;76.43;33.15;;;8.20;99.90;;;;;;5005265;28;20176;-70
2022/12/26 00:33:52;;;;;;;71.13;31.88;;;8.20;99.90;;;;;;5003453;28;20132;-71
2022/12/26 00:36:27;;;;;;;90.22;36.45;;;8.20;99.90;;;;;;4986945;28;20104;-71
2022/12/26 00:38:54;;;;;;;78.97;35.25;;;8.20;99.90;;;;;;5001670;28;20453;-71
2022/12/26 00:41:20;;;;;;;67.53;33.50;;;8.20;99.90;;;;;;5006640;28;20099;-71
2022/12/26 00:43:48;;;;;;;71.88;31.92;;;8.20;99.90;;;;;;5003192;28;20597;-72
2022/12/26 00:46:14;;;;;;;86.78;35.35;;;8.20;99.90;;;;;;5002478;28;20045;-69
2022/12/26 00:48:40;;;;;;;83.80;33.67;;;8.20;99.90;;;;;;5002952;28;20795;-71
2022/12/26 00:51:05;;;;;;;64.57;31.77;;;8.20;99.90;;;;;;5005879;28;20042;-71
2022/12/26 00:53:32;;;;;;;78.80;32.38;;;8.20;99.90;;;;;;5001727;28;20402;-69
2022/12/26 00:55:58;;;;;;;79.30;33.30;;;8.20;99.90;;;;;;5005679;28;20073;-70
2022/12/26 00:58:24;;;;;;;74.40;32.85;;;8.20;99.90;;;;;;5002494;28;20144;-70
2022/12/26 01:00:50;;;;;;;63.88;31.60;;;8.20;99.90;;;;;;4984514;28;20046;-71
2022/12/26 01:03:17;;;;;;;80.05;29.15;;;8.20;99.90;;;;;;5003064;28;20055;-69
2022/12/26 01:05:48;;;;;;;62.20;31.77;;;8.20;99.90;;;;;;5003170;28;20494;-69
2022/12/26 01:08:16;;;;;;;60.50;31.60;;;8.20;99.90;;;;;;5001560;28;20493;-70
2022/12/26 01:10:43;;;;;;;71.82;35.22;;;8.20;99.90;;;;;;5003125;28;20042;-69
2022/12/26 01:13:09;;;;;;;76.57;35.13;;;8.20;99.90;;;;;;5003224;28;20053;-71
2022/12/26 01:15:35;;;;;;;83.78;34.55;;;8.20;99.90;;;;;;5002231;28;20045;-69
2022/12/26 01:18:01;;;;;;;82.95;36.28;;;8.20;99.90;;;;;;5005179;28;20049;-69
2022/12/26 01:20:27;;;;;;;71.25;33.67;;;8.20;99.90;;;;;;5004211;28;20058;-69
2022/12/26 01:22:54;;;;;;;75.30;35.15;;;8.20;99.90;;;;;;5001961;28;20477;-69
2022/12/26 01:25:20;;;;;;;63.13;33.38;;;8.20;99.90;;;;;;5004891;28;20121;-69
2022/12/26 01:27:46;;;;;;;61.13;30.60;;;8.20;99.90;;;;;;5005637;28;20121;-69
2022/12/26 01:30:12;;;;;;;63.65;31.48;;;8.20;99.90;;;;;;5004441;28;20037;-69
2022/12/26 01:32:37;;;;;;;74.22;33.00;;;8.20;99.90;;;;;;5004700;28;20053;-69
2022/12/26 01:35:03;;;;;;;67.13;30.52;;;8.20;99.90;;;;;;5000072;28;20128;-69
2022/12/26 01:37:29;;;;;;;59.03;30.33;;;8.20;99.90;;;;;;4986774;28;20060;-69
2022/12/26 01:39:56;;;;;;;72.60;32.78;;;8.20;99.90;;;;;;5004413;28;20042;-71
2022/12/26 01:42:25;;;;;;;67.28;31.17;;;8.20;99.90;;;;;;5005039;28;20736;-71
2022/12/26 01:45:23;;;;;;;57.42;30.35;;;8.20;99.90;;;;;;4986346;28;20050;-71
2022/12/26 01:48:03;;;;;;;60.10;30.13;;;8.20;99.90;;;;;;5004055;28;20050;-71
2022/12/26 01:50:36;;;;;;;54.20;27.60;;;8.20;99.90;;;;;;5004375;28;20049;-71
2022/12/26 01:53:20;;;;;;;58.17;27.20;;;8.20;99.90;;;;;;5001289;28;20062;-71
2022/12/26 01:55:50;;;;;;;49.65;24.95;;;8.20;99.90;;;;;;5001020;28;20046;-71
2022/12/26 01:58:23;;;;;;;52.55;26.27;;;8.20;99.90;;;;;;5003332;28;20073;-71
2022/12/26 02:00:50;;;;;;;51.25;24.27;;;8.20;99.90;;;;;;4986911;28;20084;-70
2022/12/26 02:06:00;;;;;;;65.20;28.30;;;8.30;99.90;;;;;;5003280;28;20042;-71
2022/12/26 02:08:33;;;;;;;45.63;24.38;;;8.30;99.90;;;;;;5002168;28;20049;-71
2022/12/26 02:10:58;;;;;;;41.83;22.67;;;8.20;99.90;;;;;;4984797;28;20053;-71
2022/12/26 02:13:26;;;;;;;41.05;22.88;;;8.30;99.90;;;;;;5003284;28;20057;-70
2022/12/26 02:15:52;;;;;;;42.33;22.88;;;8.30;99.90;;;;;;5001587;28;20461;-70
2022/12/26 02:18:18;;;;;;;60.35;26.27;;;8.30;99.90;;;;;;4983547;28;20049;-71
2022/12/26 02:20:54;;;;;;;44.60;21.98;;;8.30;99.90;;;;;;5000148;28;20406;-70
2022/12/26 02:23:32;;;;;;;53.20;23.52;;;8.30;99.90;;;;;;4970039;28;20410;-71
2022/12/26 02:26:33;;;;;;;44.22;21.52;;;8.30;99.90;;;;;;5003218;28;20087;-71
2022/12/26 02:29:23;;;;;;;51.92;24.20;;;8.30;99.90;;;;;;5001430;28;20061;-70
2022/12/26 02:32:23;;;;;;;45.58;23.40;;;8.30;99.90;;;;;;4985643;28;21292;-70
2022/12/26 02:35:12;;;;;;;47.63;24.95;;;8.30;99.90;;;;;;4999509;28;20437;-70
2022/12/26 02:37:52;;;;;;;56.47;23.77;;;8.30;99.90;;;;;;5002989;28;20046;-70
2022/12/26 02:40:38;;;;;;;55.03;26.05;;;8.30;99.90;;;;;;5000238;28;20157;-70
2022/12/26 02:43:24;;;;;;;59.38;26.85;;;8.30;99.90;;;;;;5002467;28;20042;-70
2022/12/26 02:49:18;;;;;;;53.97;25.10;;;8.40;99.90;;;;;;5003716;28;20046;-70
2022/12/26 03:15:17;;;;;;;57.80;30.45;;;8.30;99.90;;;;;;4998933;28;20073;-70
2022/12/26 03:17:48;;;;;;;58.17;31.20;;;8.40;99.90;;;;;;5000133;28;20042;-70
2022/12/26 03:20:20;;;;;;;64.20;34.05;;;8.40;99.90;;;;;;4998951;28;20582;-71
2022/12/26 03:22:54;;;;;;;62.70;32.08;;;8.40;99.90;;;;;;4981184;28;20164;-70
2022/12/26 03:28:21;;;;;;;71.05;37.53;;;8.50;99.90;;;;;;5003906;28;20050;-71
2022/12/26 03:30:50;;;;;;;67.78;36.42;;;8.50;99.90;;;;;;5002190;28;20061;-70
2022/12/26 03:36:23;;;;;;;74.63;39.80;;;8.50;99.90;;;;;;5006377;28;20066;-70
2022/12/26 03:39:18;;;;;;;78.47;40.47;;;8.50;99.90;;;;;;5003587;28;20050;-71
2022/12/26 04:20:42;;;;;;;92.30;44.72;;;8.50;99.90;;;;;;4986518;28;20061;-71
2022/12/26 04:46:24;;;;;;;98.97;48.40;;;8.60;99.90;;;;;;5005607;28;20403;-71
2022/12/26 04:51:37;;;;;;;84.05;43.03;;;8.60;99.90;;;;;;4998398;28;20781;-71
2022/12/26 04:54:04;;;;;;;87.53;46.70;;;8.60;99.90;;;;;;4986161;28;20061;-71
2022/12/26 04:56:29;;;;;;;86.40;46.60;;;8.60;99.90;;;;;;4989321;28;20050;-71
2022/12/26 04:58:56;;;;;;;85.75;44.33;;;8.60;99.90;;;;;;5000464;28;20049;-71
2022/12/26 05:09:41;;;;;;;85.78;43.55;;;8.60;99.90;;;;;;5009276;28;20050;-71
2022/12/26 05:12:08;;;;;;;82.70;42.60;;;8.50;99.90;;;;;;4985301;28;20061;-71
2022/12/26 05:14:34;;;;;;;76.32;40.45;;;8.50;99.90;;;;;;4987822;28;20053;-71
2022/12/26 05:30:59;;;;;;;74.80;38.45;;;8.50;99.90;;;;;;4991003;28;20846;-71
2022/12/26 05:36:09;;;;;;;70.28;36.42;;;8.50;99.90;;;;;;5007017;28;20057;-71
2022/12/26 05:38:36;;;;;;;67.97;37.90;;;8.50;99.90;;;;;;5003447;28;20069;-71
2022/12/26 05:41:02;;;;;;;76.50;39.78;;;8.50;99.90;;;;;;5004832;28;20034;-71
2022/12/26 05:43:28;;;;;;;78.22;37.25;;;8.50;99.90;;;;;;4988999;28;20041;-71
2022/12/26 05:45:53;;;;;;;74.70;35.65;;;8.50;99.90;;;;;;5005746;28;20041;-71
2022/12/26 05:48:19;;;;;;;61.45;35.17;;;8.40;99.90;;;;;;5004867;28;20042;-71
2022/12/26 05:50:45;;;;;;;68.78;36.67;;;8.40;99.90;;;;;;5007470;28;20148;-71
2022/12/26 05:53:10;;;;;;;69.05;38.22;;;8.40;99.90;;;;;;4999663;28;20038;-71
2022/12/26 05:55:36;;;;;;;69.50;38.38;;;8.40;99.90;;;;;;4991739;28;20042;-71
2022/12/26 05:58:02;;;;;;;61.50;34.53;;;8.40;99.90;;;;;;5004108;28;20050;-71
2022/12/26 06:00:29;;;;;;;70.55;36.47;;;8.40;99.90;;;;;;5004738;28;20521;-71
2022/12/26 06:02:54;;;;;;;65.78;36.58;;;8.40;99.90;;;;;;5006340;28;20044;-71
2022/12/26 06:05:20;;;;;;;67.13;36.50;;;8.40;99.90;;;;;;5001655;28;20034;-71
2022/12/26 06:07:46;;;;;;;68.90;36.08;;;8.40;99.90;;;;;;5005511;28;20104;-71
2022/12/26 06:10:12;;;;;;;63.35;35.42;;;8.50;99.90;;;;;;5005212;28;20434;-71
2022/12/26 06:12:38;;;;;;;61.30;35.30;;;8.40;99.90;;;;;;5006918;28;20050;-72
2022/12/26 06:15:04;;;;;;;66.72;36.75;;;8.40;99.90;;;;;;5002353;28;20052;-72
2022/12/26 06:17:30;;;;;;;65.10;37.00;;;8.40;99.90;;;;;;5012705;28;20130;-72
2022/12/26 06:19:55;;;;;;;65.90;38.40;;;8.40;99.90;;;;;;5003860;28;20137;-72
2022/12/26 06:22:21;;;;;;;65.13;35.72;;;8.40;99.90;;;;;;5002732;28;20061;-72
2022/12/26 06:24:47;;;;;;;64.78;37.40;;;8.40;99.90;;;;;;5000333;28;20046;-71
2022/12/26 06:27:12;;;;;;;61.92;36.53;;;8.40;99.90;;;;;;5002393;28;20414;-72
2022/12/26 06:29:38;;;;;;;60.28;35.83;;;8.40;99.90;;;;;;5004737;28;20096;-72
2022/12/26 06:32:04;;;;;;;66.82;36.92;;;8.40;99.90;;;;;;5003254;28;20085;-71
2022/12/26 06:34:29;;;;;;;61.88;36.22;;;8.40;99.90;;;;;;5002208;28;20048;-71
2022/12/26 06:36:55;;;;;;;66.15;37.40;;;8.40;99.90;;;;;;5005135;28;20140;-71
2022/12/26 06:39:22;;;;;;;68.03;38.72;;;8.40;99.90;;;;;;5005639;28;20056;-71
2022/12/26 06:41:47;;;;;;;61.42;33.90;;;8.50;99.90;;;;;;5007074;28;20041;-71
2022/12/26 06:44:14;;;;;;;65.10;36.17;;;8.40;99.90;;;;;;5000189;28;20168;-71
2022/12/26 06:46:40;;;;;;;67.05;35.05;;;8.40;99.90;;;;;;5004297;28;20168;-71
2022/12/26 06:49:05;;;;;;;63.88;35.80;;;8.40;99.90;;;;;;5005908;28;20125;-71
2022/12/26 06:51:32;;;;;;;63.55;36.55;;;8.50;99.90;;;;;;5008256;28;20105;-71
2022/12/26 06:54:01;;;;;;;60.20;35.60;;;8.40;99.90;;;;;;5002033;28;20046;-71
2022/12/26 06:56:27;;;;;;;56.00;34.53;;;8.50;99.90;;;;;;4978341;28;20072;-71
2022/12/26 06:59:01;;;;;;;53.90;32.00;;;8.50;99.90;;;;;;5006006;28;20045;-71
2022/12/26 07:01:29;;;;;;;56.17;31.08;;;8.50;99.90;;;;;;5006978;28;20056;-71
2022/12/26 07:03:55;;;;;;;57.67;34.40;;;8.50;99.90;;;;;;5003261;28;20722;-71
2022/12/26 07:06:29;;;;;;;52.78;29.85;;;8.50;99.90;;;;;;4987843;28;20045;-72
2022/12/26 07:09:01;;;;;;;50.42;30.60;;;8.50;99.90;;;;;;5005778;28;20046;-71
2022/12/26 07:11:29;;;;;;;46.85;30.17;;;8.50;99.90;;;;;;5005352;28;20053;-71
2022/12/26 07:13:55;;;;;;;48.40;29.05;;;8.50;99.90;;;;;;5003702;28;20042;-71
2022/12/26 07:16:21;;;;;;;45.53;28.05;;;8.50;99.90;;;;;;5005783;28;20046;-71
2022/12/26 07:18:47;;;;;;;46.13;28.95;;;8.50;99.90;;;;;;5005988;28;20050;-71
2022/12/26 07:21:16;;;;;;;44.65;28.10;;;8.50;99.90;;;;;;5005714;28;20049;-72
2022/12/26 07:23:42;;;;;;;48.17;27.92;;;8.50;99.90;;;;;;5005939;28;20077;-72
2022/12/26 07:26:07;;;;;;;46.13;29.15;;;8.50;99.90;;;;;;5002382;28;20898;-72
2022/12/26 07:28:34;;;;;;;49.25;29.55;;;8.50;99.90;;;;;;5007739;28;20045;-72
2022/12/26 07:30:59;;;;;;;46.45;28.60;;;8.50;99.90;;;;;;4992894;28;20439;-72
2022/12/26 07:33:27;;;;;;;50.70;30.25;;;8.50;99.90;;;;;;5005983;28;20041;-72
2022/12/26 07:35:52;;;;;;;44.53;29.90;;;8.50;99.90;;;;;;4982814;28;20090;-72
2022/12/26 07:38:18;;;;;;;49.45;29.17;;;8.50;99.90;;;;;;4999966;28;20749;-72
2022/12/26 07:40:44;;;;;;;54.67;31.13;;;8.50;99.90;;;;;;4998470;28;20049;-72
2022/12/26 07:43:10;;;;;;;57.03;31.73;;;8.50;99.90;;;;;;5000185;28;20044;-71
2022/12/26 07:45:36;;;;;;;55.95;30.45;;;8.50;99.90;;;;;;4999543;28;20062;-72
2022/12/26 07:48:01;;;;;;;53.92;33.60;;;8.50;99.90;;;;;;5000844;28;20476;-72
2022/12/26 07:50:27;;;;;;;55.60;33.42;;;8.50;99.90;;;;;;4981511;28;20140;-72
2022/12/26 07:52:53;;;;;;;54.28;33.67;;;8.50;99.90;;;;;;4999364;28;20059;-72
2022/12/26 07:55:21;;;;;;;53.40;32.15;;;8.40;99.90;;;;;;4999665;28;20934;-72
2022/12/26 07:57:51;;;;;;;53.50;33.30;;;8.40;99.90;;;;;;5001228;28;20056;-71
2022/12/26 08:00:18;;;;;;;63.85;34.78;;;8.40;99.90;;;;;;5003629;28;20156;-71
2022/12/26 08:02:49;;;;;;;54.45;32.75;;;8.40;99.90;;;;;;5006866;28;20137;-71
2022/12/26 08:05:16;;;;;;;49.47;30.88;;;8.40;99.90;;;;;;4999417;28;20084;-71
2022/12/26 08:07:42;;;;;;;58.35;33.75;;;8.30;99.90;;;;;;5005700;28;20038;-71
2022/12/26 08:10:08;;;;;;;55.50;34.40;;;8.30;99.90;;;;;;5004906;28;20038;-72
2022/12/26 08:12:34;;;;;;;48.58;31.48;;;8.30;99.90;;;;;;5000189;28;20038;-71
2022/12/26 08:14:59;;;;;;;49.55;31.83;;;8.40;99.90;;;;;;4973123;28;20147;-71
2022/12/26 08:17:25;;;;;;;53.70;31.15;;;8.30;99.90;;;;;;4979294;28;20037;-71
2022/12/26 08:19:51;;;;;;;54.92;29.55;;;8.40;99.90;;;;;;4998901;28;20692;-72
2022/12/26 08:22:16;;;;;;;47.03;29.63;;;8.30;99.90;;;;;;4999118;28;20124;-72
2022/12/26 08:24:42;;;;;;;48.83;28.63;;;8.30;99.90;;;;;;4999387;28;20073;-72
2022/12/26 08:27:09;;;;;;;46.95;28.67;;;8.30;99.90;;;;;;5000632;28;20724;-72
2022/12/26 08:29:35;;;;;;;51.60;29.70;;;8.30;99.90;;;;;;4998651;28;20092;-72
2022/12/26 08:32:00;;;;;;;46.28;29.40;;;8.30;99.90;;;;;;5002955;28;20042;-72
2022/12/26 08:34:32;;;;;;;54.35;28.95;;;8.30;99.90;;;;;;4989167;28;20049;-71
2022/12/26 08:36:58;;;;;;;54.50;27.92;;;8.30;99.90;;;;;;4996989;28;20066;-73
2022/12/26 08:39:23;;;;;;;43.15;26.20;;;8.30;99.90;;;;;;4997757;28;20486;-73
2022/12/26 08:41:49;;;;;;;43.03;27.98;;;8.30;99.90;;;;;;4981234;28;20132;-73
2022/12/26 08:44:16;;;;;;;43.15;27.83;;;8.30;99.90;;;;;;5005770;28;20042;-73
2022/12/26 08:46:43;;;;;;;44.90;27.10;;;8.30;99.90;;;;;;5004281;28;20053;-73
2022/12/26 08:49:08;;;;;;;41.55;27.75;;;8.40;99.90;;;;;;4985131;28;20690;-73
2022/12/26 08:51:34;;;;;;;44.08;27.42;;;8.40;99.90;;;;;;4984255;28;20038;-73
2022/12/26 08:54:00;;;;;;;46.17;27.42;;;8.40;99.90;;;;;;5005011;28;20129;-73
2022/12/26 08:56:27;;;;;;;41.58;24.60;;;8.40;99.90;;;;;;5003895;28;20450;-73
2022/12/26 08:58:53;;;;;;;37.97;26.15;;;8.50;99.90;;;;;;5004161;28;20049;-73
2022/12/26 09:01:21;;;;;;;32.55;23.05;;;8.50;99.90;;;;;;4997295;28;20046;-73
2022/12/26 09:03:51;;;;;;;38.38;25.60;;;8.50;99.90;;;;;;5002536;28;20491;-73
2022/12/26 09:06:16;;;;;;;31.17;21.25;;;8.50;99.90;;;;;;5000493;28;20499;-73
2022/12/26 09:08:42;;;;;;;31.88;21.92;;;8.60;99.90;;;;;;5001868;28;20057;-73
2022/12/26 09:11:13;;;;;;;39.85;21.58;;;8.60;99.90;;;;;;5002478;28;20038;-73
2022/12/26 09:13:40;;;;;;;30.33;19.90;;;8.60;99.90;;;;;;4999821;28;20049;-72
2022/12/26 09:16:27;;;;;;;36.30;20.13;;;8.60;99.90;;;;;;4981401;28;20069;-73
2022/12/26 09:18:56;;;;;;;31.70;18.48;;;8.70;99.90;;;;;;4999355;28;20594;-72
2022/12/26 09:21:24;;;;;;;26.27;19.02;;;8.70;99.90;;;;;;4998176;28;20045;-72
2022/12/26 09:23:54;;;;;;;32.83;19.13;;;8.70;99.90;;;;;;4999492;28;20038;-73
2022/12/26 09:26:20;;;;;;;22.83;16.77;;;8.70;99.90;;;;;;5002248;28;20511;-73
2022/12/26 09:28:46;;;;;;;28.73;17.20;;;8.70;99.90;;;;;;4981756;28;20053;-72
2022/12/26 09:31:24;;;;;;;24.40;16.88;;;8.70;99.90;;;;;;4996728;28;20050;-72
2022/12/26 09:33:52;;;;;;;24.08;15.68;;;8.80;99.90;;;;;;5000005;28;20463;-72
2022/12/26 09:36:21;;;;;;;28.17;17.20;;;8.80;99.90;;;;;;4999803;28;20061;-72
2022/12/26 09:38:47;;;;;;;39.47;16.77;;;8.80;99.90;;;;;;4999824;28;20042;-72
2022/12/26 09:41:34;;;;;;;27.10;16.27;;;8.80;99.90;;;;;;4998839;28;20148;-72
2022/12/26 09:44:11;;;;;;;25.35;14.80;;;8.80;99.90;;;;;;4995382;28;20058;-72
2022/12/26 09:46:45;;;;;;;25.25;14.70;;;8.70;99.90;;;;;;4977581;28;20049;-71
2022/12/26 09:49:42;;;;;;;27.73;15.55;;;8.80;99.90;;;;;;4984594;28;20133;-71
2022/12/26 09:52:17;;;;;;;22.58;14.90;;;8.80;99.90;;;;;;4996456;28;20046;-72
2022/12/26 09:54:55;;;;;;;20.88;15.18;;;8.90;99.90;;;;;;5004661;28;20046;-72
2022/12/26 09:57:36;;;;;;;18.30;12.02;;;8.90;99.90;;;;;;4998240;28;20042;-72
2022/12/26 10:00:04;;;;;;;18.67;12.60;;;8.90;99.90;;;;;;5000017;28;20159;-72
2022/12/26 10:02:30;;;;;;;14.60;10.38;;;8.90;99.90;;;;;;4998839;28;20050;-72
2022/12/26 10:04:56;;;;;;;14.40;9.88;;;8.90;99.90;;;;;;5001996;28;20037;-72
2022/12/26 10:07:36;;;;;;;15.13;9.30;;;8.90;99.90;;;;;;5002541;28;20100;-72
2022/12/26 10:10:44;;;;;;;13.95;10.30;;;9.00;99.90;;;;;;4996515;28;20061;-72
2022/12/26 10:13:16;;;;;;;15.88;10.88;;;9.00;99.90;;;;;;4993501;28;20046;-72
2022/12/26 10:16:20;;;;;;;17.42;8.88;;;9.00;99.90;;;;;;4998480;28;20782;-72
2022/12/26 10:19:24;;;;;;;9.68;7.22;;;8.90;99.90;;;;;;4950482;28;20108;-72
2022/12/26 10:22:18;;;;;;;13.10;7.38;;;9.00;99.90;;;;;;4948594;28;20054;-72
2022/12/26 10:24:45;;;;;;;25.08;7.22;;;8.90;99.90;;;;;;4978964;28;20137;-72
2022/12/26 10:27:15;;;;;;;20.33;5.03;;;8.90;99.90;;;;;;4997447;28;20425;-72
2022/12/26 10:29:48;;;;;;;18.52;6.88;;;8.90;99.90;;;;;;5004487;28;20042;-72
2022/12/26 10:32:24;;;;;;;15.65;5.13;;;8.80;99.90;;;;;;4998533;28;20069;-71
2022/12/26 10:34:51;;;;;;;15.90;4.90;;;8.80;99.90;;;;;;5002124;28;20113;-72
2022/12/26 10:37:29;;;;;;;16.25;4.30;;;8.60;99.90;;;;;;5002970;28;20053;-71
2022/12/26 10:40:16;;;;;;;14.98;4.57;;;8.50;99.90;;;;;;5000469;28;20478;-72
2022/12/26 10:42:44;;;;;;;14.80;4.47;;;8.50;99.90;;;;;;4983060;28;20050;-71
2022/12/26 10:45:28;;;;;;;14.05;2.97;;;8.40;99.90;;;;;;5001730;28;20117;-70
2022/12/26 10:47:54;;;;;;;12.80;3.78;;;8.30;99.90;;;;;;5001801;28;20054;-70
2022/12/26 10:50:23;;;;;;;14.02;4.40;;;8.20;99.90;;;;;;5002203;28;20128;-70
2022/12/26 10:52:49;;;;;;;20.77;4.35;;;8.20;99.90;;;;;;4975805;28;20084;-70
2022/12/26 10:55:19;;;;;;;14.63;3.55;;;8.10;99.90;;;;;;4998808;28;20050;-71
2022/12/26 10:57:49;;;;;;;17.58;4.68;;;8.10;99.90;;;;;;5000582;28;20049;-70
2022/12/26 11:00:22;;;;;;;16.00;3.35;;;8.10;99.90;;;;;;5002546;28;20046;-70
2022/12/26 11:03:09;;;;;;;8.60;2.42;;;8.00;99.90;;;;;;4999942;28;20052;-70
2022/12/26 11:05:53;;;;;;;16.77;3.53;;;8.00;99.90;;;;;;5000171;28;20140;-70
2022/12/26 11:08:31;;;;;;;14.45;3.83;;;8.00;99.90;;;;;;4995474;28;20069;-71
2022/12/26 11:11:22;;;;;;;11.95;3.92;;;8.00;99.90;;;;;;4998951;28;20056;-71
2022/12/26 11:13:57;;;;;;;15.00;3.67;;;8.00;99.90;;;;;;4974296;28;20089;-73
2022/12/26 11:16:30;;;;;;;19.50;3.97;;;8.00;99.90;;;;;;4996701;28;20402;-71
2022/12/26 11:18:56;;;;;;;7.80;3.17;;;8.00;99.90;;;;;;4983047;28;20057;-71
2022/12/26 11:21:28;;;;;;;10.32;2.78;;;7.90;99.90;;;;;;5003067;28;20060;-70
2022/12/26 11:24:05;;;;;;;21.00;2.58;;;7.80;99.90;;;;;;4980574;28;20188;-70
2022/12/26 11:26:31;;;;;;;8.77;2.83;;;7.80;99.90;;;;;;5001056;28;20042;-71
2022/12/26 11:29:14;;;;;;;12.93;2.22;;;7.70;99.90;;;;;;4978920;28;20049;-71
2022/12/26 11:31:42;;;;;;;10.95;2.78;;;7.70;99.90;;;;;;4981991;28;20429;-70
2022/12/26 11:34:18;;;;;;;9.20;2.65;;;7.60;99.90;;;;;;4999037;28;20058;-71
2022/12/26 11:36:48;;;;;;;11.35;2.95;;;7.60;99.90;;;;;;4969693;28;20049;-70
2022/12/26 11:39:24;;;;;;;19.73;3.25;;;7.60;99.90;;;;;;5000006;28;20530;-71
2022/12/26 11:41:52;;;;;;;7.00;2.15;;;7.60;99.90;;;;;;4981517;28;20045;-71
2022/12/26 11:44:25;;;;;;;19.48;2.95;;;7.60;99.90;;;;;;4998458;28;20045;-70
2022/12/26 11:46:59;;;;;;;10.25;2.78;;;7.50;99.90;;;;;;4996625;28;20625;-70
2022/12/26 11:49:44;;;;;;;10.05;2.75;;;7.50;99.90;;;;;;5000877;28;20042;-71
2022/12/26 11:52:32;;;;;;;9.13;2.58;;;7.50;99.90;;;;;;5000639;28;20414;-70
2022/12/26 11:54:58;;;;;;;9.38;2.85;;;7.50;99.90;;;;;;4982948;28;20056;-71
2022/12/26 11:57:31;;;;;;;8.85;2.85;;;7.50;99.90;;;;;;4999083;28;20053;-72
2022/12/26 12:00:20;;;;;;;21.27;2.88;;;7.50;99.90;;;;;;5001503;28;20157;-71
2022/12/26 12:02:46;;;;;;;15.45;3.03;;;7.50;99.90;;;;;;5000779;28;20146;-71
2022/12/26 12:05:28;;;;;;;12.85;2.70;;;7.50;99.90;;;;;;5001578;28;20729;-71
2022/12/26 12:08:17;;;;;;;18.33;3.72;;;7.50;99.90;;;;;;4982947;28;20037;-70
2022/12/26 12:11:17;;;;;;;8.30;2.55;;;7.40;99.90;;;;;;4995817;28;20038;-71
2022/12/26 12:13:52;;;;;;;13.38;3.75;;;7.40;99.90;;;;;;4981729;28;20049;-72
2022/12/26 12:16:55;;;;;;;8.30;3.05;;;7.30;99.90;;;;;;4966121;28;20045;-72
2022/12/26 12:19:48;;;;;;;12.88;4.18;;;7.30;99.90;;;;;;4999930;28;20419;-71
2022/12/26 12:22:52;;;;;;;11.90;2.90;;;7.30;99.90;;;;;;5002379;28;20073;-71
2022/12/26 12:25:38;;;;;;;19.40;2.72;;;7.20;99.90;;;;;;5002293;28;20052;-72
2022/12/26 12:28:26;;;;;;;18.23;2.90;;;7.20;99.90;;;;;;4984209;28;20046;-72
2022/12/26 12:31:18;;;;;;;9.00;2.70;;;7.30;99.90;;;;;;5003495;28;20046;-71
2022/12/26 12:34:02;;;;;;;11.98;2.95;;;7.20;99.90;;;;;;5002551;28;20052;-71
2022/12/26 12:36:41;;;;;;;24.23;4.07;;;7.30;99.90;;;;;;5001056;28;20712;-71
2022/12/26 12:39:34;;;;;;;20.83;4.50;;;7.30;99.90;;;;;;5003138;28;20057;-71
2022/12/26 12:42:29;;;;;;;21.88;4.13;;;7.20;99.90;;;;;;5002257;28;20129;-71
2022/12/26 12:45:25;;;;;;;30.45;5.28;;;7.20;99.90;;;;;;4992433;28;20511;-71
2022/12/26 12:48:00;;;;;;;16.13;4.88;;;7.20;99.90;;;;;;4999909;28;20034;-71
2022/12/26 12:50:38;;;;;;;18.85;4.32;;;7.10;99.90;;;;;;4999633;28;20050;-71
2022/12/26 12:53:24;;;;;;;22.10;4.90;;;7.20;99.90;;;;;;5001425;28;20046;-71
2022/12/26 12:55:59;;;;;;;23.77;4.90;;;7.20;99.90;;;;;;5001852;28;20065;-71
2022/12/26 12:58:38;;;;;;;14.65;3.97;;;7.10;99.90;;;;;;4999950;28;20046;-71
2022/12/26 13:01:18;;;;;;;17.10;3.83;;;7.10;99.90;;;;;;4999136;28;20057;-71
2022/12/26 13:04:07;;;;;;;15.40;3.72;;;7.10;99.90;;;;;;4997146;28;20070;-72
2022/12/26 13:06:49;;;;;;;23.42;4.72;;;7.10;99.90;;;;;;5002280;28;20076;-72
2022/12/26 13:09:43;;;;;;;19.92;4.72;;;7.00;99.90;;;;;;5001468;28;20042;-71
2022/12/26 13:12:27;;;;;;;20.55;3.92;;;7.00;99.90;;;;;;4998272;28;20058;-72
2022/12/26 13:15:03;;;;;;;16.88;4.28;;;7.00;99.90;;;;;;4999215;28;20045;-72
2022/12/26 13:17:35;;;;;;;22.15;5.50;;;7.00;99.90;;;;;;4998922;28;20044;-72
2022/12/26 13:20:12;;;;;;;19.05;4.78;;;7.00;99.90;;;;;;4998371;28;20391;-72
2022/12/26 13:25:34;;;;;;;22.83;5.35;;;6.90;99.90;;;;;;5000373;28;20046;-71
2022/12/26 13:28:09;;;;;;;24.23;5.25;;;7.00;99.90;;;;;;4999756;28;20053;-71
2022/12/26 13:30:36;;;;;;;24.38;4.22;;;7.00;99.90;;;;;;5004161;28;20058;-71
2022/12/26 13:33:03;;;;;;;23.15;4.65;;;7.00;99.90;;;;;;5004784;28;20060;-71
2022/12/26 13:35:53;;;;;;;15.52;4.30;;;7.00;99.90;;;;;;5001145;28;20058;-72
2022/12/26 13:38:20;;;;;;;13.18;3.92;;;7.00;99.90;;;;;;5007294;28;21508;-71
2022/12/26 13:43:53;;;;;;;13.60;4.38;;;7.00;99.90;;;;;;5003742;28;20088;-72
2022/12/26 13:43:59;;;;;;;13.25;3.83;;;7.00;99.90;;;;;;5003316;28;20441;-72
2022/12/26 13:46:40;;;;;;;18.17;3.55;;;7.00;99.90;;;;;;4999225;28;20482;-72
2022/12/26 13:49:37;;;;;;;15.07;4.97;;;6.90;99.90;;;;;;5002487;28;20077;-71
2022/12/26 13:52:09;;;;;;;15.18;4.22;;;6.90;99.90;;;;;;4984511;28;20081;-71
2022/12/26 13:54:49;;;;;;;15.98;4.07;;;6.80;99.90;;;;;;5002722;28;20052;-71
2022/12/26 13:57:23;;;;;;;13.75;4.57;;;6.80;99.90;;;;;;5003793;28;20716;-72
2022/12/26 14:00:06;;;;;;;11.93;3.35;;;6.70;99.90;;;;;;5005557;28;20049;-72
2022/12/26 14:02:51;;;;;;;17.23;4.28;;;6.70;99.90;;;;;;5009807;28;20136;-71
2022/12/26 14:05:53;;;;;;;14.40;4.38;;;6.70;99.90;;;;;;4971040;28;20204;-71
2022/12/26 14:08:28;;;;;;;23.67;4.50;;;6.60;99.90;;;;;;5002421;28;20053;-72
2022/12/26 14:11:02;;;;;;;11.68;3.38;;;6.60;99.90;;;;;;5002499;28;20046;-72
2022/12/26 14:14:18;;;;;;;19.27;4.93;;;6.50;99.90;;;;;;5002560;28;20041;-71
2022/12/26 14:17:02;;;;;;;18.20;4.95;;;6.50;99.90;;;;;;4941330;29;20075;-72
2022/12/26 14:19:46;;;;;;;9.88;3.92;;;6.40;99.90;;;;;;4938861;28;20593;-71
2022/12/26 14:22:32;;;;;;;19.38;4.30;;;6.50;99.90;;;;;;4984914;28;20050;-71
2022/12/26 14:25:07;;;;;;;23.85;4.40;;;6.40;99.90;;;;;;5004446;28;20555;-71
2022/12/26 14:27:43;;;;;;;22.35;4.70;;;6.40;99.90;;;;;;5002886;28;20429;-71
2022/12/26 14:30:19;;;;;;;24.70;4.80;;;6.40;99.90;;;;;;4999185;28;20056;-71
2022/12/26 14:33:22;;;;;;;14.82;4.57;;;6.40;99.90;;;;;;4997177;28;20100;-71
2022/12/26 14:35:59;;;;;;;12.00;3.70;;;6.40;99.90;;;;;;4925756;28;20046;-71
2022/12/26 14:38:52;;;;;;;18.10;4.07;;;6.40;99.90;;;;;;5001505;28;20046;-71
2022/12/26 14:44:21;;;;;;;25.35;5.13;;;6.30;99.90;;;;;;4999458;28;20053;-71
2022/12/26 14:46:50;;;;;;;15.88;3.42;;;6.30;99.90;;;;;;5004810;28;20057;-71
2022/12/26 14:49:38;;;;;;;15.07;3.75;;;6.20;99.90;;;;;;4987583;28;20843;-71
2022/12/26 14:52:22;;;;;;;11.98;4.22;;;6.20;99.90;;;;;;4989070;28;20046;-71
2022/12/26 14:54:50;;;;;;;20.70;4.75;;;6.10;99.90;;;;;;4999231;28;20490;-71
2022/12/26 14:57:38;;;;;;;14.63;3.53;;;6.10;99.90;;;;;;5006262;28;20041;-71
2022/12/26 15:00:24;;;;;;;19.15;4.03;;;6.00;99.90;;;;;;5006573;28;20046;-71
2022/12/26 15:03:02;;;;;;;16.33;4.72;;;6.00;99.90;;;;;;4991989;28;20056;-72
2022/12/26 15:05:36;;;;;;;20.90;4.30;;;5.90;99.90;;;;;;5005941;28;20450;-71
2022/12/26 15:08:49;;;;;;;18.70;4.55;;;5.90;99.90;;;;;;4989465;28;20832;-72
2022/12/26 15:11:48;;;;;;;17.40;3.95;;;5.80;99.90;;;;;;5003359;28;20069;-71
2022/12/26 15:14:44;;;;;;;18.15;3.92;;;5.80;99.90;;;;;;5006807;28;20050;-72
2022/12/26 15:17:31;;;;;;;11.45;4.22;;;5.70;99.90;;;;;;4977928;28;20522;-71
2022/12/26 15:20:23;;;;;;;17.83;4.68;;;5.70;99.90;;;;;;5000687;28;20057;-71
2022/12/26 15:23:15;;;;;;;17.55;4.82;;;5.60;99.90;;;;;;4990110;28;20132;-71
2022/12/26 15:26:07;;;;;;;13.20;3.97;;;5.60;99.90;;;;;;4989016;28;20045;-72